createdAt,value
2023-05-14T00:01:52.040Z,101611.19
2023-05-14T00:04:21.737Z,101611.52
2023-05-14T00:06:50.068Z,101611.63
2023-05-14T00:09:19.170Z,101611.33
2023-05-14T00:11:46.976Z,101605.04
2023-05-14T00:14:15.526Z,101605.02
2023-05-14T00:16:43.688Z,101607.98
2023-05-14T00:19:12.257Z,101605.80
2023-05-14T00:21:40.837Z,101605.45
2023-05-14T00:24:08.906Z,101603.44
2023-05-14T00:26:37.592Z,101599.88
2023-05-14T00:29:06.345Z,101598.12
2023-05-14T00:31:34.561Z,101594.96
2023-05-14T00:34:02.830Z,101591.95
2023-05-14T00:36:31.494Z,101589.52
2023-05-14T00:38:59.616Z,101589.33
2023-05-14T00:41:28.071Z,101589.89
2023-05-14T00:43:56.365Z,101589.20
2023-05-14T00:46:24.870Z,101585.66
2023-05-14T00:48:54.246Z,101582.84
2023-05-14T00:51:22.245Z,101580.68
2023-05-14T00:53:51.861Z,101579.48
2023-05-14T00:56:22.355Z,101578.95
2023-05-14T00:58:52.220Z,101577.72
2023-05-14T01:01:22.308Z,101578.19
2023-05-14T01:03:54.344Z,101578.09
2023-05-14T01:06:58.144Z,101572.70
2023-05-14T01:09:47.047Z,101574.26
2023-05-14T01:12:33.927Z,101574.30
2023-05-14T01:15:23.915Z,101574.69
2023-05-14T01:18:09.017Z,101574.80
2023-05-14T01:20:38.687Z,101574.77
2023-05-14T01:23:08.593Z,101572.84
2023-05-14T01:25:38.426Z,101573.95
2023-05-14T01:28:23.683Z,101569.94
2023-05-14T01:31:04.568Z,101571.10
2023-05-14T01:33:37.054Z,101568.83
2023-05-14T01:36:07.826Z,101564.54
2023-05-14T01:38:37.872Z,101565.52
2023-05-14T01:41:07.925Z,101563.45
2023-05-14T01:43:39.136Z,101562.93
2023-05-14T01:46:08.879Z,101559.15
2023-05-14T01:48:37.834Z,101558.02
2023-05-14T01:51:07.695Z,101557.85
2023-05-14T01:53:36.605Z,101556.02
2023-05-14T01:56:07.125Z,101556.41
2023-05-14T01:58:37.298Z,101553.83
2023-05-14T02:01:07.096Z,101558.36
2023-05-14T02:03:37.008Z,101554.99
2023-05-14T02:06:07.043Z,101555.68
2023-05-14T02:08:37.027Z,101553.95
2023-05-14T02:11:06.914Z,101554.41
2023-05-14T02:13:37.128Z,101551.14
2023-05-14T02:16:07.451Z,101551.48
2023-05-14T02:18:37.424Z,101547.44
2023-05-14T02:21:07.440Z,101552.17
2023-05-14T02:23:42.007Z,101549.91
2023-05-14T02:26:12.374Z,101547.40
2023-05-14T02:28:42.314Z,101547.19
2023-05-14T02:31:12.204Z,101547.43
2023-05-14T02:33:42.316Z,101544.84
2023-05-14T02:36:12.338Z,101542.65
2023-05-14T02:38:42.287Z,101542.98
2023-05-14T02:41:12.094Z,101543.10
2023-05-14T02:43:42.041Z,101545.45
2023-05-14T02:46:11.835Z,101542.93
2023-05-14T02:48:41.928Z,101547.41
2023-05-14T02:51:12.519Z,101542.17
2023-05-14T02:53:43.065Z,101545.92
2023-05-14T02:56:12.895Z,101543.69
2023-05-14T02:58:42.932Z,101548.14
2023-05-14T03:01:12.821Z,101546.05
2023-05-14T03:03:43.602Z,101542.13
2023-05-14T03:06:13.667Z,101539.80
2023-05-14T03:08:43.676Z,101542.73
2023-05-14T03:11:13.511Z,101546.52
2023-05-14T03:13:43.454Z,101546.23
2023-05-14T03:16:13.402Z,101545.73
2023-05-14T03:18:43.377Z,101545.91
2023-05-14T03:21:13.188Z,101548.63
2023-05-14T03:23:42.927Z,101542.42
2023-05-14T03:26:12.850Z,101544.81
2023-05-14T03:28:43.019Z,101547.73
2023-05-14T03:31:12.908Z,101545.75
2023-05-14T03:33:42.760Z,101542.85
2023-05-14T03:36:12.631Z,101536.22
2023-05-14T03:38:42.501Z,101537.48
2023-05-14T03:41:12.421Z,101538.08
2023-05-14T03:43:42.435Z,101534.75
2023-05-14T03:46:12.265Z,101534.77
2023-05-14T03:48:42.699Z,101533.27
2023-05-14T03:51:12.628Z,101532.77
2023-05-14T03:53:42.481Z,101532.98
2023-05-14T03:56:12.245Z,101537.35
2023-05-14T03:58:42.720Z,101536.05
2023-05-14T04:01:12.760Z,101530.77
2023-05-14T04:03:42.843Z,101533.16
2023-05-14T04:06:12.790Z,101531.47
2023-05-14T04:08:42.635Z,101529.04
2023-05-14T04:11:12.579Z,101533.64
2023-05-14T04:13:42.608Z,101534.68
2023-05-14T04:16:12.552Z,101534.62
2023-05-14T04:18:42.498Z,101533.54
2023-05-14T04:21:12.512Z,101526.84
2023-05-14T04:23:40.889Z,101527.56
2023-05-14T04:26:09.085Z,101522.01
2023-05-14T04:28:37.758Z,101522.42
2023-05-14T04:31:06.011Z,101516.41
2023-05-14T04:33:34.565Z,101518.17
2023-05-14T04:36:03.020Z,101516.89
2023-05-14T04:38:31.969Z,101512.58
2023-05-14T04:41:00.143Z,101510.89
2023-05-14T04:43:28.121Z,101513.40
2023-05-14T04:45:56.561Z,101511.44
2023-05-14T04:48:24.954Z,101510.81
2023-05-14T04:50:53.360Z,101507.80
2023-05-14T04:53:22.064Z,101507.55
2023-05-14T04:55:50.265Z,101508.98
2023-05-14T04:58:18.569Z,101504.52
2023-05-14T05:00:46.976Z,101504.63
2023-05-14T05:03:16.000Z,101503.87
2023-05-14T05:05:43.859Z,101502.45
2023-05-14T05:08:12.378Z,101502.41
2023-05-14T05:10:40.932Z,101502.84
2023-05-14T05:13:09.017Z,101504.14
2023-05-14T05:15:37.642Z,101503.08
2023-05-14T05:18:06.432Z,101502.19
2023-05-14T05:20:34.580Z,101499.05
2023-05-14T05:23:02.804Z,101498.98
2023-05-14T05:25:31.182Z,101497.53
2023-05-14T05:27:59.592Z,101495.55
2023-05-14T05:30:28.354Z,101494.08
2023-05-14T05:32:57.644Z,101492.88
2023-05-14T05:35:24.935Z,101490.65
2023-05-14T05:37:53.349Z,101492.46
2023-05-14T05:40:22.003Z,101490.73
2023-05-14T05:42:50.093Z,101487.45
2023-05-14T05:45:18.502Z,101485.98
2023-05-14T05:47:47.027Z,101487.59
2023-05-14T05:50:15.444Z,101483.37
2023-05-14T05:52:44.116Z,101480.56
2023-05-14T05:55:12.217Z,101480.93
2023-05-14T05:57:40.802Z,101478.95
2023-05-14T06:00:13.256Z,101477.82
2023-05-14T06:02:41.896Z,101477.92
2023-05-14T06:05:12.642Z,101478.45
2023-05-14T06:07:42.605Z,101480.77
2023-05-14T06:10:12.350Z,101479.09
2023-05-14T06:12:42.244Z,101480.20
2023-05-14T06:15:12.854Z,101482.88
2023-05-14T06:17:42.722Z,101480.50
2023-05-14T06:20:13.106Z,101479.27
2023-05-14T06:22:43.390Z,101479.80
2023-05-14T06:25:13.099Z,101479.98
2023-05-14T06:27:43.062Z,101477.48
2023-05-14T06:30:13.806Z,101481.87
2023-05-14T06:32:43.818Z,101481.19
2023-05-14T06:35:13.665Z,101480.35
2023-05-14T06:37:42.382Z,101475.86
2023-05-14T06:40:12.302Z,101473.20
2023-05-14T06:42:39.190Z,101476.76
2023-05-14T06:45:08.271Z,101484.21
2023-05-14T06:47:36.187Z,101476.61
2023-05-14T06:50:05.438Z,101475.41
2023-05-14T06:52:33.385Z,101476.55
2023-05-14T06:55:01.456Z,101476.45
2023-05-14T06:57:29.824Z,101476.38
2023-05-14T06:59:58.293Z,101475.33
2023-05-14T07:02:26.876Z,101472.59
2023-05-14T07:04:55.855Z,101471.47
2023-05-14T07:07:24.106Z,101470.46
2023-05-14T07:09:52.582Z,101468.00
2023-05-14T07:12:20.883Z,101463.88
2023-05-14T07:14:50.099Z,101462.97
2023-05-14T07:17:17.950Z,101460.36
2023-05-14T07:19:47.206Z,101458.27
2023-05-14T07:22:14.656Z,101455.40
2023-05-14T07:24:43.437Z,101455.51
2023-05-14T07:27:12.503Z,101455.30
2023-05-14T07:29:40.234Z,101457.30
2023-05-14T07:32:09.323Z,101453.20
2023-05-14T07:34:37.456Z,101450.08
2023-05-14T07:37:06.019Z,101443.23
2023-05-14T07:39:34.412Z,101441.64
2023-05-14T07:42:03.040Z,101439.14
2023-05-14T07:44:31.231Z,101435.83
2023-05-14T07:47:01.084Z,101436.19
2023-05-14T07:49:29.592Z,101433.35
2023-05-14T07:51:58.654Z,101430.34
2023-05-14T07:54:26.489Z,101428.38
2023-05-14T07:56:54.870Z,101425.37
2023-05-14T07:59:23.195Z,101422.69
2023-05-14T08:01:51.875Z,101415.67
2023-05-14T08:04:20.111Z,101413.33
2023-05-14T08:06:49.001Z,101407.06
2023-05-14T08:09:17.250Z,101405.20
2023-05-14T08:11:45.686Z,101403.66
2023-05-14T08:14:13.940Z,101402.58
2023-05-14T08:16:42.506Z,101395.89
2023-05-14T08:28:04.915Z,101389.91
2023-05-14T08:30:34.752Z,101381.31
2023-05-14T08:37:46.390Z,101378.68
2023-05-14T08:40:18.173Z,101376.70
2023-05-14T08:42:52.751Z,101374.22
2023-05-14T08:45:34.345Z,101366.52
2023-05-14T08:48:09.888Z,101362.43
2023-05-14T09:08:43.159Z,101335.61
2023-05-14T09:11:20.659Z,101330.91
2023-05-14T09:13:50.670Z,101318.02
2023-05-14T09:16:27.604Z,101317.07
2023-05-14T09:18:59.163Z,101320.60
2023-05-14T09:21:32.148Z,101314.70
2023-05-14T09:24:03.978Z,101309.80
2023-05-14T09:26:35.717Z,101304.67
2023-05-14T09:29:05.803Z,101311.86
2023-05-14T09:36:02.363Z,101299.25
2023-05-14T09:38:33.505Z,101297.55
2023-05-14T09:41:04.114Z,101291.91
2023-05-14T09:43:33.980Z,101286.63
2023-05-14T09:46:04.531Z,101285.21
2023-05-14T09:48:34.578Z,101274.28
2023-05-14T09:51:05.598Z,101272.94
2023-05-14T09:53:35.861Z,101268.91
2023-05-14T09:56:05.996Z,101269.95
2023-05-14T09:58:36.023Z,101273.45
2023-05-14T10:01:20.891Z,101273.16
2023-05-14T10:04:23.400Z,101266.59
2023-05-14T10:06:53.341Z,101263.45
2023-05-14T10:09:28.351Z,101265.44
2023-05-14T10:12:12.144Z,101260.27
2023-05-14T10:14:50.307Z,101257.10
2023-05-14T10:17:22.961Z,101255.45
2023-05-14T10:19:57.099Z,101247.59
2023-05-14T10:22:35.442Z,101245.27
2023-05-14T10:25:07.315Z,101244.48
2023-05-14T10:27:37.140Z,101246.77
2023-05-14T10:30:12.745Z,101241.02
2023-05-14T10:32:44.035Z,101239.04
2023-05-14T10:35:25.409Z,101237.57
2023-05-14T10:37:56.859Z,101235.46
2023-05-14T10:40:28.241Z,101229.30
2023-05-14T10:42:59.610Z,101228.90
2023-05-14T10:45:30.586Z,101225.70
2023-05-14T10:48:00.714Z,101226.39
2023-05-14T10:50:31.004Z,101224.92
2023-05-14T10:53:01.359Z,101222.35
2023-05-14T10:55:31.218Z,101217.77
2023-05-14T10:58:05.393Z,101218.23
2023-05-14T11:00:35.877Z,101218.06
2023-05-14T11:03:07.610Z,101217.33
2023-05-14T11:05:40.917Z,101213.82
2023-05-14T11:08:12.520Z,101215.76
2023-05-14T11:10:43.294Z,101210.80
2023-05-14T11:13:13.320Z,101209.98
2023-05-14T11:15:48.171Z,101207.02
2023-05-14T11:18:33.698Z,101204.66
2023-05-14T11:21:03.644Z,101198.52
2023-05-14T11:23:33.529Z,101194.86
2023-05-14T11:26:03.950Z,101190.30
2023-05-14T11:28:31.842Z,101189.55
2023-05-14T11:31:00.466Z,101186.47
2023-05-14T11:33:29.321Z,101180.02
2023-05-14T11:35:57.053Z,101173.25
2023-05-14T11:38:25.460Z,101170.79
2023-05-14T11:40:59.224Z,101172.82
2023-05-14T11:43:29.571Z,101169.36
2023-05-14T11:45:59.530Z,101167.35
2023-05-14T11:48:29.490Z,101160.08
2023-05-14T11:50:59.263Z,101159.65
2023-05-14T11:53:31.202Z,101159.52
2023-05-14T11:56:03.166Z,101158.48
2023-05-14T11:58:33.878Z,101158.75
2023-05-14T12:01:03.797Z,101154.77
2023-05-14T12:03:35.214Z,101153.06
2023-05-14T12:06:10.260Z,101149.27
2023-05-14T12:08:39.995Z,101150.08
2023-05-14T12:11:09.772Z,101151.74
2023-05-14T12:13:40.746Z,101146.16
2023-05-14T12:16:10.919Z,101148.03
2023-05-14T12:18:41.220Z,101142.45
2023-05-14T12:21:12.198Z,101141.83
2023-05-14T12:23:42.487Z,101139.96
2023-05-14T12:26:12.570Z,101139.14
2023-05-14T12:28:43.602Z,101132.86
2023-05-14T12:31:15.796Z,101123.21
2023-05-14T12:33:45.124Z,101123.48
2023-05-14T12:36:21.701Z,101122.54
2023-05-14T12:39:03.841Z,101115.14
2023-05-14T12:41:33.910Z,101112.08
2023-05-14T12:44:07.155Z,101105.73
2023-05-14T12:46:35.503Z,101103.27
2023-05-14T12:49:07.122Z,101104.07
2023-05-14T12:51:37.090Z,101098.29
2023-05-14T12:54:05.863Z,101097.08
2023-05-14T12:56:33.557Z,101097.33
2023-05-14T12:59:01.776Z,101097.59
2023-05-14T13:01:30.578Z,101096.48
2023-05-14T13:03:59.768Z,101100.17
2023-05-14T13:06:29.217Z,101096.09
2023-05-14T13:09:00.266Z,101097.38
2023-05-14T13:11:31.801Z,101089.27
2023-05-14T13:14:03.066Z,101087.96
2023-05-14T13:16:31.384Z,101083.69
2023-05-14T13:19:00.587Z,101080.33
2023-05-14T13:21:29.001Z,101080.92
2023-05-14T13:23:58.842Z,101075.58
2023-05-14T13:26:28.350Z,101071.54
2023-05-14T13:28:58.121Z,101066.41
2023-05-14T13:31:27.640Z,101061.77
2023-05-14T13:33:58.015Z,101060.09
2023-05-14T13:36:27.976Z,101058.75
2023-05-14T13:38:56.115Z,101063.29
2023-05-14T13:41:26.420Z,101062.19
2023-05-14T13:43:56.167Z,101065.23
2023-05-14T13:46:26.223Z,101063.08
2023-05-14T13:48:56.233Z,101062.79
2023-05-14T13:51:26.087Z,101060.70
2023-05-14T13:53:56.252Z,101060.76
2023-05-14T13:56:26.453Z,101060.04
2023-05-14T13:58:56.350Z,101056.86
2023-05-14T14:01:26.434Z,101060.10
2023-05-14T14:03:56.726Z,101058.65
2023-05-14T14:06:27.597Z,101051.95
2023-05-14T14:08:57.481Z,101051.96
2023-05-14T14:11:27.777Z,101046.61
2023-05-14T14:13:58.384Z,101045.58
2023-05-14T14:16:30.473Z,101037.98
2023-05-14T14:19:00.471Z,101033.45
2023-05-14T14:21:31.791Z,101032.02
2023-05-14T14:23:59.078Z,101030.11
2023-05-14T14:26:28.111Z,101027.27
2023-05-14T14:28:55.739Z,101023.20
2023-05-14T14:31:24.015Z,101021.11
2023-05-14T14:33:52.680Z,101016.58
2023-05-14T14:36:20.930Z,101015.06
2023-05-14T14:38:49.081Z,101010.14
2023-05-14T14:41:17.655Z,101005.39
2023-05-14T14:43:45.990Z,101002.27
2023-05-14T14:46:14.428Z,101005.66
2023-05-14T14:48:43.938Z,101007.19
2023-05-14T14:51:13.729Z,101002.23
2023-05-14T14:53:41.866Z,100998.55
2023-05-14T14:56:10.444Z,100999.44
2023-05-14T14:58:38.829Z,100996.42
2023-05-14T15:01:07.536Z,100992.13
2023-05-14T15:03:36.118Z,100988.08
2023-05-14T15:06:04.377Z,100988.31
2023-05-14T15:08:32.385Z,100979.08
2023-05-14T15:11:00.951Z,100980.08
2023-05-14T15:13:29.303Z,100974.23
2023-05-14T15:15:57.968Z,100977.33
2023-05-14T15:18:26.329Z,100978.19
2023-05-14T15:20:54.681Z,100974.16
2023-05-14T15:23:23.240Z,100969.51
2023-05-14T15:25:51.373Z,100968.44
2023-05-14T15:28:19.743Z,100967.73
2023-05-14T15:30:48.520Z,100963.31
2023-05-14T15:33:19.151Z,100964.09
2023-05-14T15:35:49.245Z,100961.42
2023-05-14T15:38:19.178Z,100960.85
2023-05-14T15:40:50.851Z,100958.98
2023-05-14T15:43:20.822Z,100953.03
2023-05-14T15:45:50.673Z,100951.09
2023-05-14T15:48:20.525Z,100951.46
2023-05-14T15:50:51.554Z,100954.67
2023-05-14T15:53:21.824Z,100950.69
2023-05-14T15:55:52.287Z,100956.01
2023-05-14T15:58:21.979Z,100945.04
2023-05-14T16:00:51.772Z,100946.91
2023-05-14T16:03:20.309Z,100949.10
2023-05-14T16:05:48.856Z,100940.77
2023-05-14T16:08:17.250Z,100937.44
2023-05-14T16:10:47.019Z,100935.16
2023-05-14T16:34:57.473Z,100921.36
2023-05-14T16:37:27.696Z,100917.46
2023-05-14T16:39:57.607Z,100917.02
2023-05-14T16:42:27.701Z,100918.61
2023-05-14T16:44:57.525Z,100918.34
2023-05-14T16:47:27.569Z,100918.31
2023-05-14T16:49:57.709Z,100916.34
2023-05-14T16:52:27.817Z,100918.21
2023-05-14T16:54:57.700Z,100917.56
2023-05-14T16:57:27.737Z,100915.59
2023-05-14T16:59:57.708Z,100913.58
2023-05-14T17:02:27.750Z,100910.97
2023-05-14T17:04:58.369Z,100910.46
2023-05-14T17:07:28.509Z,100911.71
2023-05-14T17:10:00.094Z,100910.06
2023-05-14T17:12:30.647Z,100907.17
2023-05-14T17:15:04.525Z,100904.03
2023-05-14T17:17:35.486Z,100901.25
2023-05-14T17:20:06.653Z,100899.29
2023-05-14T17:22:34.784Z,100899.05
2023-05-14T17:25:02.845Z,100902.46
2023-05-14T17:27:33.449Z,100902.23
2023-05-14T17:30:03.902Z,100900.88
2023-05-14T17:32:31.617Z,100904.13
2023-05-14T17:34:59.460Z,100905.04
2023-05-14T17:37:28.096Z,100905.51
2023-05-14T17:39:56.650Z,100908.44
2023-05-14T17:42:25.013Z,100908.96
2023-05-14T17:44:53.863Z,100910.61
2023-05-14T17:47:22.212Z,100911.31
2023-05-14T17:49:51.200Z,100908.70
2023-05-14T17:52:19.158Z,100908.02
2023-05-14T17:54:48.701Z,100912.95
2023-05-14T17:57:17.151Z,100911.77
2023-05-14T17:59:47.085Z,100914.38
2023-05-14T18:02:14.495Z,100919.39
2023-05-14T18:04:42.743Z,100920.00
2023-05-14T18:07:11.565Z,100924.40
2023-05-14T18:09:39.791Z,100926.33
2023-05-14T18:12:13.138Z,100924.27
2023-05-14T18:14:45.366Z,100924.35
2023-05-14T18:17:13.641Z,100928.55
2023-05-14T18:19:41.584Z,100928.75
2023-05-14T18:22:11.468Z,100931.36
2023-05-14T18:24:41.820Z,100932.68
2023-05-14T18:27:11.778Z,100932.04
2023-05-14T18:29:42.820Z,100929.70
2023-05-14T18:32:12.700Z,100933.13
2023-05-14T18:34:42.515Z,100932.47
2023-05-14T18:37:12.442Z,100932.95
2023-05-14T18:39:42.419Z,100930.55
2023-05-14T18:42:15.694Z,100930.95
2023-05-14T18:44:45.711Z,100932.14
2023-05-14T18:47:15.669Z,100934.22
2023-05-14T18:49:47.194Z,100936.98
2023-05-14T18:52:16.934Z,100937.07
2023-05-14T18:54:46.928Z,100940.39
2023-05-14T18:57:16.899Z,100944.44
2023-05-14T18:59:47.169Z,100942.22
2023-05-14T19:02:17.135Z,100944.58
2023-05-14T19:07:21.758Z,100944.41
2023-05-14T19:09:51.660Z,100949.09
2023-05-14T19:12:21.623Z,100952.64
2023-05-14T19:14:49.900Z,100952.15
2023-05-14T19:17:20.408Z,100953.95
2023-05-14T19:19:50.270Z,100953.45
2023-05-14T19:22:19.688Z,100952.60
2023-05-14T19:24:47.016Z,100951.38
2023-05-14T19:27:17.348Z,100955.65
2023-05-14T19:29:47.082Z,100955.83
2023-05-14T19:32:16.949Z,100959.55
2023-05-14T19:34:46.943Z,100959.51
2023-05-14T19:37:17.097Z,100959.14
2023-05-14T19:39:47.257Z,100954.52
2023-05-14T19:42:17.418Z,100957.69
2023-05-14T19:44:47.169Z,100954.66
2023-05-14T19:47:15.771Z,100953.59
2023-05-14T19:49:44.070Z,100950.56
2023-05-14T19:52:12.671Z,100949.30
2023-05-14T19:54:40.972Z,100947.32
2023-05-14T19:57:09.916Z,100949.59
2023-05-14T19:59:39.206Z,100948.89
2023-05-14T20:02:06.182Z,100947.26
2023-05-14T20:04:34.946Z,100946.85
2023-05-14T20:07:03.188Z,100945.94
2023-05-14T20:09:31.522Z,100944.70
2023-05-14T20:11:59.838Z,100944.86
2023-05-14T20:14:28.216Z,100943.77
2023-05-14T20:16:57.824Z,100941.92
2023-05-14T20:19:26.764Z,100946.80
2023-05-14T20:21:56.864Z,100945.67
2023-05-14T20:24:25.192Z,100945.46
2023-05-14T20:26:53.552Z,100943.13
2023-05-14T20:29:21.983Z,100939.01
2023-05-14T20:31:50.305Z,100940.54
2023-05-14T20:34:19.196Z,100939.59
2023-05-14T20:36:48.936Z,100938.12
2023-05-14T20:39:18.780Z,100934.35
2023-05-14T20:41:48.801Z,100932.88
2023-05-14T20:44:20.477Z,100929.64
2023-05-14T20:46:50.649Z,100928.55
2023-05-14T20:49:20.630Z,100926.90
2023-05-14T20:51:50.397Z,100922.27
2023-05-14T20:54:20.202Z,100922.23
2023-05-14T20:56:50.540Z,100920.95
2023-05-14T20:59:20.471Z,100919.16
2023-05-14T21:01:51.122Z,100916.67
2023-05-14T21:04:21.223Z,100915.61
2023-05-14T21:06:51.876Z,100915.80
2023-05-14T21:09:23.268Z,100912.96
2023-05-14T21:11:56.049Z,100909.92
2023-05-14T21:14:25.961Z,100904.79
2023-05-14T21:16:55.981Z,100905.59
2023-05-14T21:19:25.816Z,100905.02
2023-05-14T21:21:55.709Z,100901.21
2023-05-14T21:24:25.553Z,100901.82
2023-05-14T21:26:55.496Z,100902.64
2023-05-14T21:29:25.452Z,100899.77
2023-05-14T21:31:55.405Z,100894.41
2023-05-14T21:34:25.494Z,100895.73
2023-05-14T21:36:55.741Z,100891.23
2023-05-14T21:39:25.583Z,100890.45
2023-05-14T21:41:55.795Z,100891.08
2023-05-14T21:44:24.256Z,100888.30
2023-05-14T21:46:54.475Z,100886.82
2023-05-14T21:49:22.910Z,100888.36
2023-05-14T21:51:54.129Z,100881.98
2023-05-14T21:54:23.651Z,100880.50
2023-05-14T21:56:52.049Z,100876.56
2023-05-14T21:59:21.090Z,100873.54
2023-05-14T22:02:06.462Z,100873.98
2023-05-14T22:04:37.188Z,100868.23
2023-05-14T22:07:07.429Z,100867.48
2023-05-14T22:09:37.192Z,100865.03
2023-05-14T22:12:08.970Z,100866.45
2023-05-14T22:14:37.445Z,100859.77
2023-05-14T22:17:06.141Z,100862.47
2023-05-14T22:19:34.222Z,100860.92
2023-05-14T22:22:04.416Z,100860.41
2023-05-14T22:24:32.442Z,100857.97
2023-05-14T22:27:01.000Z,100855.16
2023-05-14T22:29:30.143Z,100851.66
2023-05-14T22:31:58.558Z,100852.27
2023-05-14T22:34:27.004Z,100849.15
2023-05-14T22:36:55.856Z,100849.19
2023-05-14T22:39:24.304Z,100846.91
2023-05-14T22:41:55.291Z,100848.21
2023-05-14T22:44:25.792Z,100846.08
2023-05-14T22:46:56.580Z,100844.97
2023-05-14T22:49:26.644Z,100842.30
2023-05-14T22:51:56.564Z,100839.52
2023-05-14T22:54:26.414Z,100840.59
2023-05-14T22:56:56.199Z,100840.83
2023-05-14T22:59:26.088Z,100843.61
2023-05-14T23:01:55.959Z,100840.66
2023-05-14T23:04:26.125Z,100836.98
2023-05-14T23:06:56.151Z,100832.73
2023-05-14T23:09:26.042Z,100836.09
2023-05-14T23:11:55.909Z,100829.23
2023-05-14T23:14:25.954Z,100827.66
2023-05-14T23:16:55.969Z,100822.59
2023-05-14T23:19:26.670Z,100822.09
2023-05-14T23:21:58.300Z,100816.66
2023-05-14T23:24:28.101Z,100810.85
2023-05-14T23:26:57.983Z,100805.42
2023-05-14T23:29:27.828Z,100804.73
2023-05-14T23:31:57.852Z,100806.63
2023-05-14T23:34:27.859Z,100803.80
2023-05-14T23:36:57.679Z,100804.10
2023-05-14T23:39:27.877Z,100799.14
2023-05-14T23:41:57.624Z,100797.34
2023-05-14T23:44:27.542Z,100794.84
2023-05-14T23:46:57.539Z,100791.08
2023-05-14T23:49:27.752Z,100790.11
2023-05-14T23:51:58.143Z,100786.56
2023-05-14T23:54:26.221Z,100781.77
2023-05-14T23:56:54.445Z,100781.48
2023-05-14T23:59:22.996Z,100778.94
